sensor_id;sensor_type;location;lat;lon;timestamp;P1;durP1;ratioP1;P2;durP2;ratioP2
1591;SDS011;789;51.612;7.510;2022-10-16T00:00:43;11.60;;;9.03;;
1591;SDS011;789;51.612;7.510;2022-10-16T00:03:10;13.40;;;9.50;;
1591;SDS011;789;51.612;7.510;2022-10-16T00:05:38;14.03;;;9.30;;
1591;SDS011;789;51.612;7.510;2022-10-16T00:08:06;17.27;;;9.70;;
1591;SDS011;789;51.612;7.510;2022-10-16T00:10:34;14.27;;;7.90;;
1591;SDS011;789;51.612;7.510;2022-10-16T00:13:01;9.53;;;6.90;;
1591;SDS011;789;51.612;7.510;2022-10-16T00:15:28;11.70;;;6.63;;
1591;SDS011;789;51.612;7.510;2022-10-16T00:17:55;10.70;;;7.50;;
1591;SDS011;789;51.612;7.510;2022-10-16T00:20:22;15.23;;;8.17;;
1591;SDS011;789;51.612;7.510;2022-10-16T00:22:48;9.87;;;6.33;;
1591;SDS011;789;51.612;7.510;2022-10-16T00:25:15;6.23;;;5.27;;
1591;SDS011;789;51.612;7.510;2022-10-16T00:27:43;8.80;;;5.13;;
1591;SDS011;789;51.612;7.510;2022-10-16T00:30:10;9.63;;;4.67;;
1591;SDS011;789;51.612;7.510;2022-10-16T00:32:37;7.00;;;4.70;;
1591;SDS011;789;51.612;7.510;2022-10-16T00:35:04;10.10;;;5.17;;
1591;SDS011;789;51.612;7.510;2022-10-16T00:37:31;5.63;;;4.20;;
1591;SDS011;789;51.612;7.510;2022-10-16T00:39:58;6.33;;;4.40;;
1591;SDS011;789;51.612;7.510;2022-10-16T00:42:24;7.90;;;4.33;;
1591;SDS011;789;51.612;7.510;2022-10-16T00:44:53;10.03;;;6.43;;
1591;SDS011;789;51.612;7.510;2022-10-16T00:47:22;10.00;;;7.50;;
1591;SDS011;789;51.612;7.510;2022-10-16T00:49:53;10.53;;;7.47;;
1591;SDS011;789;51.612;7.510;2022-10-16T00:52:24;9.73;;;6.77;;
1591;SDS011;789;51.612;7.510;2022-10-16T00:54:51;7.80;;;6.00;;
1591;SDS011;789;51.612;7.510;2022-10-16T00:57:19;6.07;;;4.97;;
1591;SDS011;789;51.612;7.510;2022-10-16T00:59:46;5.37;;;4.40;;
1591;SDS011;789;51.612;7.510;2022-10-16T01:02:14;8.87;;;5.07;;
1591;SDS011;789;51.612;7.510;2022-10-16T01:04:42;7.13;;;6.23;;
1591;SDS011;789;51.612;7.510;2022-10-16T01:07:12;6.97;;;5.30;;
1591;SDS011;789;51.612;7.510;2022-10-16T01:09:46;8.13;;;5.80;;
1591;SDS011;789;51.612;7.510;2022-10-16T01:12:20;15.57;;;10.53;;
1591;SDS011;789;51.612;7.510;2022-10-16T01:15:02;18.53;;;11.87;;
1591;SDS011;789;51.612;7.510;2022-10-16T01:17:38;16.77;;;9.93;;
1591;SDS011;789;51.612;7.510;2022-10-16T01:20:12;18.60;;;8.50;;
1591;SDS011;789;51.612;7.510;2022-10-16T01:22:54;13.33;;;8.03;;
1591;SDS011;789;51.612;7.510;2022-10-16T01:25:30;12.87;;;6.10;;
1591;SDS011;789;51.612;7.510;2022-10-16T01:28:22;5.50;;;3.80;;
1591;SDS011;789;51.612;7.510;2022-10-16T01:30:52;4.93;;;4.07;;
1591;SDS011;789;51.612;7.510;2022-10-16T01:33:24;4.30;;;3.30;;
1591;SDS011;789;51.612;7.510;2022-10-16T01:35:56;4.13;;;3.00;;
1591;SDS011;789;51.612;7.510;2022-10-16T01:38:29;5.40;;;3.70;;
1591;SDS011;789;51.612;7.510;2022-10-16T01:41:00;4.70;;;3.83;;
1591;SDS011;789;51.612;7.510;2022-10-16T01:43:33;7.43;;;5.37;;
1591;SDS011;789;51.612;7.510;2022-10-16T01:46:03;12.13;;;8.70;;
1591;SDS011;789;51.612;7.510;2022-10-16T01:48:31;15.20;;;9.00;;
1591;SDS011;789;51.612;7.510;2022-10-16T01:51:01;11.80;;;8.00;;
1591;SDS011;789;51.612;7.510;2022-10-16T01:53:31;11.87;;;8.07;;
1591;SDS011;789;51.612;7.510;2022-10-16T01:55:59;13.47;;;9.20;;
1591;SDS011;789;51.612;7.510;2022-10-16T01:58:28;11.10;;;7.90;;
1591;SDS011;789;51.612;7.510;2022-10-16T02:01:00;11.73;;;7.93;;
1591;SDS011;789;51.612;7.510;2022-10-16T02:03:28;16.50;;;7.93;;
1591;SDS011;789;51.612;7.510;2022-10-16T02:05:55;10.80;;;5.53;;
1591;SDS011;789;51.612;7.510;2022-10-16T02:08:24;8.37;;;5.43;;
1591;SDS011;789;51.612;7.510;2022-10-16T02:10:54;12.97;;;5.33;;
1591;SDS011;789;51.612;7.510;2022-10-16T02:13:22;7.07;;;4.87;;
1591;SDS011;789;51.612;7.510;2022-10-16T02:15:51;12.50;;;5.77;;
1591;SDS011;789;51.612;7.510;2022-10-16T02:18:19;13.10;;;7.50;;
1591;SDS011;789;51.612;7.510;2022-10-16T02:20:48;11.20;;;7.07;;
1591;SDS011;789;51.612;7.510;2022-10-16T02:23:19;9.43;;;6.60;;
1591;SDS011;789;51.612;7.510;2022-10-16T02:25:53;9.53;;;5.00;;
1591;SDS011;789;51.612;7.510;2022-10-16T02:28:22;13.03;;;6.00;;
1591;SDS011;789;51.612;7.510;2022-10-16T02:30:54;13.13;;;7.27;;
1591;SDS011;789;51.612;7.510;2022-10-16T02:33:27;16.20;;;8.17;;
1591;SDS011;789;51.612;7.510;2022-10-16T02:35:56;11.37;;;7.70;;
1591;SDS011;789;51.612;7.510;2022-10-16T02:38:23;13.40;;;8.87;;
1591;SDS011;789;51.612;7.510;2022-10-16T02:40:51;12.13;;;8.37;;
1591;SDS011;789;51.612;7.510;2022-10-16T02:43:18;13.37;;;7.63;;
1591;SDS011;789;51.612;7.510;2022-10-16T02:45:45;8.90;;;6.23;;
1591;SDS011;789;51.612;7.510;2022-10-16T02:48:12;8.77;;;4.87;;
1591;SDS011;789;51.612;7.510;2022-10-16T02:50:41;12.40;;;6.33;;
1591;SDS011;789;51.612;7.510;2022-10-16T02:53:07;11.47;;;6.67;;
1591;SDS011;789;51.612;7.510;2022-10-16T02:55:34;4.20;;;3.80;;
1591;SDS011;789;51.612;7.510;2022-10-16T02:58:01;4.93;;;3.60;;
1591;SDS011;789;51.612;7.510;2022-10-16T03:00:27;10.87;;;6.30;;
1591;SDS011;789;51.612;7.510;2022-10-16T03:02:54;13.93;;;8.67;;
1591;SDS011;789;51.612;7.510;2022-10-16T03:05:21;12.80;;;5.90;;
1591;SDS011;789;51.612;7.510;2022-10-16T03:07:49;8.90;;;5.37;;
1591;SDS011;789;51.612;7.510;2022-10-16T03:10:17;5.67;;;3.97;;
1591;SDS011;789;51.612;7.510;2022-10-16T03:12:44;3.33;;;2.50;;
1591;SDS011;789;51.612;7.510;2022-10-16T03:15:10;2.60;;;2.40;;
1591;SDS011;789;51.612;7.510;2022-10-16T03:17:37;5.47;;;2.40;;
1591;SDS011;789;51.612;7.510;2022-10-16T03:20:04;10.47;;;5.83;;
1591;SDS011;789;51.612;7.510;2022-10-16T03:22:32;11.30;;;5.53;;
1591;SDS011;789;51.612;7.510;2022-10-16T03:25:00;16.80;;;8.23;;
1591;SDS011;789;51.612;7.510;2022-10-16T03:27:26;12.33;;;6.70;;
1591;SDS011;789;51.612;7.510;2022-10-16T03:29:53;19.03;;;8.00;;
1591;SDS011;789;51.612;7.510;2022-10-16T03:32:20;8.30;;;5.50;;
1591;SDS011;789;51.612;7.510;2022-10-16T03:34:47;14.33;;;5.33;;
1591;SDS011;789;51.612;7.510;2022-10-16T03:37:13;11.00;;;4.70;;
1591;SDS011;789;51.612;7.510;2022-10-16T03:39:40;6.30;;;4.47;;
1591;SDS011;789;51.612;7.510;2022-10-16T03:42:08;6.10;;;3.20;;
1591;SDS011;789;51.612;7.510;2022-10-16T03:44:34;9.83;;;3.40;;
1591;SDS011;789;51.612;7.510;2022-10-16T03:47:01;3.67;;;3.27;;
1591;SDS011;789;51.612;7.510;2022-10-16T03:49:28;4.00;;;3.00;;
1591;SDS011;789;51.612;7.510;2022-10-16T03:51:55;3.70;;;3.40;;
1591;SDS011;789;51.612;7.510;2022-10-16T03:54:21;9.40;;;3.53;;
1591;SDS011;789;51.612;7.510;2022-10-16T03:56:48;5.90;;;4.37;;
1591;SDS011;789;51.612;7.510;2022-10-16T03:59:16;14.30;;;5.93;;
1591;SDS011;789;51.612;7.510;2022-10-16T04:01:43;10.90;;;5.53;;
1591;SDS011;789;51.612;7.510;2022-10-16T04:04:09;10.87;;;5.33;;
1591;SDS011;789;51.612;7.510;2022-10-16T04:06:36;7.27;;;4.10;;
1591;SDS011;789;51.612;7.510;2022-10-16T04:09:03;7.67;;;3.93;;
1591;SDS011;789;51.612;7.510;2022-10-16T04:11:29;9.43;;;4.47;;
1591;SDS011;789;51.612;7.510;2022-10-16T04:13:56;7.17;;;4.27;;
1591;SDS011;789;51.612;7.510;2022-10-16T04:16:24;10.43;;;4.10;;
1591;SDS011;789;51.612;7.510;2022-10-16T04:18:51;9.70;;;4.60;;
1591;SDS011;789;51.612;7.510;2022-10-16T04:21:18;6.93;;;4.53;;
1591;SDS011;789;51.612;7.510;2022-10-16T04:23:44;11.97;;;5.20;;
1591;SDS011;789;51.612;7.510;2022-10-16T04:26:11;7.73;;;3.27;;
1591;SDS011;789;51.612;7.510;2022-10-16T04:28:38;3.93;;;2.73;;
1591;SDS011;789;51.612;7.510;2022-10-16T04:31:05;3.67;;;2.40;;
1591;SDS011;789;51.612;7.510;2022-10-16T04:33:33;3.63;;;2.20;;
1591;SDS011;789;51.612;7.510;2022-10-16T04:36:01;4.73;;;2.40;;
1591;SDS011;789;51.612;7.510;2022-10-16T04:38:28;2.97;;;2.77;;
1591;SDS011;789;51.612;7.510;2022-10-16T04:40:55;2.93;;;2.47;;
1591;SDS011;789;51.612;7.510;2022-10-16T04:43:22;6.13;;;2.63;;
1591;SDS011;789;51.612;7.510;2022-10-16T04:45:49;2.63;;;2.00;;
1591;SDS011;789;51.612;7.510;2022-10-16T04:48:16;2.60;;;2.40;;
1591;SDS011;789;51.612;7.510;2022-10-16T04:50:44;2.07;;;1.87;;
1591;SDS011;789;51.612;7.510;2022-10-16T04:53:11;3.07;;;2.30;;
1591;SDS011;789;51.612;7.510;2022-10-16T04:55:38;4.60;;;1.80;;
1591;SDS011;789;51.612;7.510;2022-10-16T04:58:06;2.53;;;1.87;;
1591;SDS011;789;51.612;7.510;2022-10-16T05:00:33;2.10;;;1.90;;
1591;SDS011;789;51.612;7.510;2022-10-16T05:03:00;2.50;;;2.30;;
1591;SDS011;789;51.612;7.510;2022-10-16T05:05:26;2.17;;;2.00;;
1591;SDS011;789;51.612;7.510;2022-10-16T05:07:55;4.87;;;2.20;;
1591;SDS011;789;51.612;7.510;2022-10-16T05:10:22;3.30;;;2.13;;
1591;SDS011;789;51.612;7.510;2022-10-16T05:12:48;2.00;;;1.80;;
1591;SDS011;789;51.612;7.510;2022-10-16T05:15:16;2.60;;;1.90;;
1591;SDS011;789;51.612;7.510;2022-10-16T05:17:43;2.43;;;2.07;;
1591;SDS011;789;51.612;7.510;2022-10-16T05:20:10;3.47;;;2.40;;
1591;SDS011;789;51.612;7.510;2022-10-16T05:22:37;3.23;;;1.93;;
1591;SDS011;789;51.612;7.510;2022-10-16T05:25:06;1.70;;;1.60;;
1591;SDS011;789;51.612;7.510;2022-10-16T05:27:33;1.90;;;1.70;;
1591;SDS011;789;51.612;7.510;2022-10-16T05:29:59;2.67;;;2.40;;
1591;SDS011;789;51.612;7.510;2022-10-16T05:32:26;2.73;;;2.30;;
1591;SDS011;789;51.612;7.510;2022-10-16T05:34:53;4.13;;;2.40;;
1591;SDS011;789;51.612;7.510;2022-10-16T05:37:20;2.90;;;2.60;;
1591;SDS011;789;51.612;7.510;2022-10-16T05:39:46;2.90;;;1.77;;
1591;SDS011;789;51.612;7.510;2022-10-16T05:42:14;4.27;;;3.13;;
1591;SDS011;789;51.612;7.510;2022-10-16T05:44:41;2.10;;;1.90;;
1591;SDS011;789;51.612;7.510;2022-10-16T05:47:08;5.37;;;2.30;;
1591;SDS011;789;51.612;7.510;2022-10-16T05:49:35;4.63;;;2.27;;
1591;SDS011;789;51.612;7.510;2022-10-16T05:52:02;2.37;;;2.17;;
1591;SDS011;789;51.612;7.510;2022-10-16T05:54:29;3.73;;;2.23;;
1591;SDS011;789;51.612;7.510;2022-10-16T05:56:55;3.83;;;2.20;;
1591;SDS011;789;51.612;7.510;2022-10-16T05:59:23;5.57;;;3.33;;
1591;SDS011;789;51.612;7.510;2022-10-16T06:01:50;4.93;;;3.50;;
1591;SDS011;789;51.612;7.510;2022-10-16T06:04:18;4.50;;;2.40;;
1591;SDS011;789;51.612;7.510;2022-10-16T06:06:45;3.27;;;2.23;;
1591;SDS011;789;51.612;7.510;2022-10-16T06:09:11;3.70;;;2.17;;
1591;SDS011;789;51.612;7.510;2022-10-16T06:11:38;2.40;;;2.07;;
1591;SDS011;789;51.612;7.510;2022-10-16T06:14:05;1.90;;;1.80;;
1591;SDS011;789;51.612;7.510;2022-10-16T06:16:34;3.10;;;2.90;;
1591;SDS011;789;51.612;7.510;2022-10-16T06:19:01;5.33;;;2.10;;
1591;SDS011;789;51.612;7.510;2022-10-16T06:21:31;3.30;;;1.73;;
1591;SDS011;789;51.612;7.510;2022-10-16T06:23:58;4.07;;;1.70;;
1591;SDS011;789;51.612;7.510;2022-10-16T06:26:25;2.63;;;2.40;;
1591;SDS011;789;51.612;7.510;2022-10-16T06:28:53;2.70;;;1.70;;
1591;SDS011;789;51.612;7.510;2022-10-16T06:31:21;1.87;;;1.70;;
1591;SDS011;789;51.612;7.510;2022-10-16T06:33:51;2.77;;;1.93;;
1591;SDS011;789;51.612;7.510;2022-10-16T06:36:17;7.37;;;1.80;;
1591;SDS011;789;51.612;7.510;2022-10-16T06:38:44;5.37;;;2.23;;
1591;SDS011;789;51.612;7.510;2022-10-16T06:41:12;3.80;;;1.83;;
1591;SDS011;789;51.612;7.510;2022-10-16T06:43:41;3.97;;;2.20;;
1591;SDS011;789;51.612;7.510;2022-10-16T06:46:09;2.93;;;2.10;;
1591;SDS011;789;51.612;7.510;2022-10-16T06:48:37;3.30;;;2.00;;
1591;SDS011;789;51.612;7.510;2022-10-16T06:51:06;2.27;;;2.10;;
1591;SDS011;789;51.612;7.510;2022-10-16T06:53:35;3.90;;;2.20;;
1591;SDS011;789;51.612;7.510;2022-10-16T06:56:07;3.57;;;2.23;;
1591;SDS011;789;51.612;7.510;2022-10-16T06:58:34;2.60;;;1.90;;
1591;SDS011;789;51.612;7.510;2022-10-16T07:01:02;1.80;;;1.70;;
1591;SDS011;789;51.612;7.510;2022-10-16T07:03:28;4.47;;;2.90;;
1591;SDS011;789;51.612;7.510;2022-10-16T07:05:55;2.70;;;2.50;;
1591;SDS011;789;51.612;7.510;2022-10-16T07:08:23;2.70;;;2.50;;
1591;SDS011;789;51.612;7.510;2022-10-16T07:10:57;2.30;;;2.20;;
1591;SDS011;789;51.612;7.510;2022-10-16T07:13:24;3.97;;;2.20;;
1591;SDS011;789;51.612;7.510;2022-10-16T07:15:51;2.90;;;2.10;;
1591;SDS011;789;51.612;7.510;2022-10-16T07:18:18;4.30;;;1.77;;
1591;SDS011;789;51.612;7.510;2022-10-16T07:20:45;3.03;;;1.63;;
1591;SDS011;789;51.612;7.510;2022-10-16T07:23:11;1.90;;;1.43;;
1591;SDS011;789;51.612;7.510;2022-10-16T07:25:39;5.90;;;1.60;;
1591;SDS011;789;51.612;7.510;2022-10-16T07:28:06;1.70;;;1.60;;
1591;SDS011;789;51.612;7.510;2022-10-16T07:30:34;1.63;;;1.53;;
1591;SDS011;789;51.612;7.510;2022-10-16T07:33:02;2.87;;;1.53;;
1591;SDS011;789;51.612;7.510;2022-10-16T07:35:28;2.47;;;1.70;;
1591;SDS011;789;51.612;7.510;2022-10-16T07:37:55;3.80;;;1.77;;
1591;SDS011;789;51.612;7.510;2022-10-16T07:40:22;3.77;;;2.07;;
1591;SDS011;789;51.612;7.510;2022-10-16T07:42:50;7.93;;;2.10;;
1591;SDS011;789;51.612;7.510;2022-10-16T07:45:17;2.53;;;1.90;;
1591;SDS011;789;51.612;7.510;2022-10-16T07:47:44;2.27;;;1.70;;
1591;SDS011;789;51.612;7.510;2022-10-16T07:50:10;2.87;;;1.60;;
1591;SDS011;789;51.612;7.510;2022-10-16T07:52:37;2.20;;;1.57;;
1591;SDS011;789;51.612;7.510;2022-10-16T07:55:04;5.10;;;1.70;;
1591;SDS011;789;51.612;7.510;2022-10-16T07:57:31;2.00;;;1.60;;
1591;SDS011;789;51.612;7.510;2022-10-16T07:59:59;1.97;;;1.33;;
1591;SDS011;789;51.612;7.510;2022-10-16T08:02:26;3.50;;;1.30;;
1591;SDS011;789;51.612;7.510;2022-10-16T08:04:52;4.23;;;1.50;;
1591;SDS011;789;51.612;7.510;2022-10-16T08:07:19;1.60;;;1.20;;
1591;SDS011;789;51.612;7.510;2022-10-16T08:09:48;2.90;;;1.70;;
1591;SDS011;789;51.612;7.510;2022-10-16T08:12:16;4.47;;;1.60;;
1591;SDS011;789;51.612;7.510;2022-10-16T08:14:43;5.60;;;2.00;;
1591;SDS011;789;51.612;7.510;2022-10-16T08:17:11;1.73;;;1.47;;
1591;SDS011;789;51.612;7.510;2022-10-16T08:19:40;2.53;;;1.47;;
1591;SDS011;789;51.612;7.510;2022-10-16T08:22:10;1.90;;;1.70;;
1591;SDS011;789;51.612;7.510;2022-10-16T08:24:37;2.57;;;1.40;;
1591;SDS011;789;51.612;7.510;2022-10-16T08:27:04;5.80;;;1.53;;
1591;SDS011;789;51.612;7.510;2022-10-16T08:29:31;2.53;;;1.40;;
1591;SDS011;789;51.612;7.510;2022-10-16T08:31:58;2.63;;;1.40;;
1591;SDS011;789;51.612;7.510;2022-10-16T08:34:26;2.53;;;1.70;;
1591;SDS011;789;51.612;7.510;2022-10-16T08:36:53;2.97;;;1.50;;
1591;SDS011;789;51.612;7.510;2022-10-16T08:39:20;1.63;;;1.30;;
1591;SDS011;789;51.612;7.510;2022-10-16T08:44:55;2.50;;;1.23;;
1591;SDS011;789;51.612;7.510;2022-10-16T08:47:42;2.57;;;1.50;;
1591;SDS011;789;51.612;7.510;2022-10-16T08:50:23;33.03;;;30.53;;
1591;SDS011;789;51.612;7.510;2022-10-16T08:52:52;19.40;;;17.60;;
1591;SDS011;789;51.612;7.510;2022-10-16T08:55:28;12.60;;;11.43;;
1591;SDS011;789;51.612;7.510;2022-10-16T08:57:58;2.13;;;1.30;;
1591;SDS011;789;51.612;7.510;2022-10-16T09:00:26;2.37;;;1.27;;
1591;SDS011;789;51.612;7.510;2022-10-16T09:02:55;3.20;;;1.20;;
1591;SDS011;789;51.612;7.510;2022-10-16T09:05:36;4.80;;;1.40;;
1591;SDS011;789;51.612;7.510;2022-10-16T09:08:31;4.00;;;1.30;;
1591;SDS011;789;51.612;7.510;2022-10-16T09:11:03;5.83;;;1.20;;
1591;SDS011;789;51.612;7.510;2022-10-16T09:13:41;1.00;;;0.90;;
1591;SDS011;789;51.612;7.510;2022-10-16T09:16:15;3.60;;;1.13;;
1591;SDS011;789;51.612;7.510;2022-10-16T09:18:47;2.60;;;1.10;;
1591;SDS011;789;51.612;7.510;2022-10-16T09:21:20;2.40;;;1.40;;
1591;SDS011;789;51.612;7.510;2022-10-16T09:23:49;3.07;;;1.80;;
1591;SDS011;789;51.612;7.510;2022-10-16T09:26:16;2.20;;;1.20;;
1591;SDS011;789;51.612;7.510;2022-10-16T09:28:44;3.13;;;1.47;;
1591;SDS011;789;51.612;7.510;2022-10-16T09:31:13;2.20;;;1.17;;
1591;SDS011;789;51.612;7.510;2022-10-16T09:33:45;3.13;;;1.40;;
1591;SDS011;789;51.612;7.510;2022-10-16T09:36:16;4.37;;;1.20;;
1591;SDS011;789;51.612;7.510;2022-10-16T09:38:45;3.83;;;1.30;;
1591;SDS011;789;51.612;7.510;2022-10-16T09:41:14;1.63;;;1.10;;
1591;SDS011;789;51.612;7.510;2022-10-16T09:43:46;5.50;;;1.30;;
1591;SDS011;789;51.612;7.510;2022-10-16T09:46:22;2.57;;;1.20;;
1591;SDS011;789;51.612;7.510;2022-10-16T09:48:53;5.40;;;1.40;;
1591;SDS011;789;51.612;7.510;2022-10-16T09:51:24;1.80;;;1.33;;
1591;SDS011;789;51.612;7.510;2022-10-16T09:53:56;3.20;;;1.37;;
1591;SDS011;789;51.612;7.510;2022-10-16T09:56:25;6.30;;;2.30;;
1591;SDS011;789;51.612;7.510;2022-10-16T09:58:53;2.30;;;2.10;;
1591;SDS011;789;51.612;7.510;2022-10-16T10:01:22;3.00;;;1.57;;
1591;SDS011;789;51.612;7.510;2022-10-16T10:03:55;3.83;;;1.57;;
1591;SDS011;789;51.612;7.510;2022-10-16T10:06:26;1.50;;;1.10;;
1591;SDS011;789;51.612;7.510;2022-10-16T10:08:58;1.70;;;1.00;;
1591;SDS011;789;51.612;7.510;2022-10-16T10:11:37;4.20;;;1.30;;
1591;SDS011;789;51.612;7.510;2022-10-16T10:14:06;2.50;;;1.07;;
1591;SDS011;789;51.612;7.510;2022-10-16T10:16:39;1.77;;;1.20;;
1591;SDS011;789;51.612;7.510;2022-10-16T10:19:09;2.77;;;1.50;;
1591;SDS011;789;51.612;7.510;2022-10-16T10:21:40;3.00;;;1.90;;
1591;SDS011;789;51.612;7.510;2022-10-16T10:24:10;2.83;;;1.30;;
1591;SDS011;789;51.612;7.510;2022-10-16T10:26:38;2.57;;;1.20;;
1591;SDS011;789;51.612;7.510;2022-10-16T10:29:08;1.73;;;1.10;;
1591;SDS011;789;51.612;7.510;2022-10-16T10:31:43;5.57;;;1.40;;
1591;SDS011;789;51.612;7.510;2022-10-16T10:34:32;4.63;;;1.33;;
1591;SDS011;789;51.612;7.510;2022-10-16T10:39:58;2.77;;;1.13;;
1591;SDS011;789;51.612;7.510;2022-10-16T10:42:35;3.53;;;1.43;;
1591;SDS011;789;51.612;7.510;2022-10-16T10:48:11;3.40;;;1.20;;
1591;SDS011;789;51.612;7.510;2022-10-16T10:51:00;3.33;;;1.43;;
1591;SDS011;789;51.612;7.510;2022-10-16T10:53:36;2.20;;;1.10;;
1591;SDS011;789;51.612;7.510;2022-10-16T10:56:15;1.80;;;1.20;;
1591;SDS011;789;51.612;7.510;2022-10-16T10:59:14;7.07;;;5.77;;
1591;SDS011;789;51.612;7.510;2022-10-16T11:01:59;5.93;;;3.20;;
1591;SDS011;789;51.612;7.510;2022-10-16T11:04:37;2.83;;;1.70;;
1591;SDS011;789;51.612;7.510;2022-10-16T11:07:17;3.03;;;1.57;;
1591;SDS011;789;51.612;7.510;2022-10-16T11:09:50;3.50;;;1.87;;
1591;SDS011;789;51.612;7.510;2022-10-16T11:12:20;2.97;;;1.30;;
1591;SDS011;789;51.612;7.510;2022-10-16T11:14:50;1.77;;;1.10;;
1591;SDS011;789;51.612;7.510;2022-10-16T11:17:25;3.00;;;1.20;;
1591;SDS011;789;51.612;7.510;2022-10-16T11:19:55;7.00;;;1.60;;
1591;SDS011;789;51.612;7.510;2022-10-16T11:22:29;2.37;;;1.30;;
1591;SDS011;789;51.612;7.510;2022-10-16T11:25:00;2.80;;;1.87;;
1591;SDS011;789;51.612;7.510;2022-10-16T11:27:40;2.53;;;1.60;;
1591;SDS011;789;51.612;7.510;2022-10-16T11:30:13;4.30;;;2.80;;
1591;SDS011;789;51.612;7.510;2022-10-16T11:32:48;3.60;;;1.80;;
1591;SDS011;789;51.612;7.510;2022-10-16T11:35:21;1.90;;;1.47;;
1591;SDS011;789;51.612;7.510;2022-10-16T11:37:51;2.30;;;1.30;;
1591;SDS011;789;51.612;7.510;2022-10-16T11:40:22;1.60;;;1.30;;
1591;SDS011;789;51.612;7.510;2022-10-16T11:42:56;1.90;;;1.00;;
1591;SDS011;789;51.612;7.510;2022-10-16T11:45:30;1.87;;;1.00;;
1591;SDS011;789;51.612;7.510;2022-10-16T11:48:04;2.07;;;1.27;;
1591;SDS011;789;51.612;7.510;2022-10-16T11:50:43;1.73;;;1.27;;
1591;SDS011;789;51.612;7.510;2022-10-16T11:53:16;1.93;;;1.23;;
1591;SDS011;789;51.612;7.510;2022-10-16T11:55:48;2.90;;;1.50;;
1591;SDS011;789;51.612;7.510;2022-10-16T11:58:19;2.13;;;1.50;;
1591;SDS011;789;51.612;7.510;2022-10-16T12:00:53;4.40;;;1.27;;
1591;SDS011;789;51.612;7.510;2022-10-16T12:03:27;2.10;;;1.50;;
1591;SDS011;789;51.612;7.510;2022-10-16T12:06:04;1.53;;;1.40;;
1591;SDS011;789;51.612;7.510;2022-10-16T12:08:39;2.00;;;1.60;;
1591;SDS011;789;51.612;7.510;2022-10-16T12:11:07;2.90;;;1.77;;
1591;SDS011;789;51.612;7.510;2022-10-16T12:13:36;2.87;;;1.57;;
1591;SDS011;789;51.612;7.510;2022-10-16T12:16:06;5.40;;;1.80;;
1591;SDS011;789;51.612;7.510;2022-10-16T12:18:46;2.13;;;1.60;;
1591;SDS011;789;51.612;7.510;2022-10-16T12:21:14;2.90;;;1.70;;
1591;SDS011;789;51.612;7.510;2022-10-16T12:23:46;2.80;;;1.23;;
1591;SDS011;789;51.612;7.510;2022-10-16T12:26:15;3.10;;;1.70;;
1591;SDS011;789;51.612;7.510;2022-10-16T12:28:54;1.80;;;1.47;;
1591;SDS011;789;51.612;7.510;2022-10-16T12:31:42;4.40;;;2.10;;
1591;SDS011;789;51.612;7.510;2022-10-16T12:34:14;3.80;;;1.67;;
1591;SDS011;789;51.612;7.510;2022-10-16T12:36:48;2.77;;;1.60;;
1591;SDS011;789;51.612;7.510;2022-10-16T12:39:20;2.23;;;1.73;;
1591;SDS011;789;51.612;7.510;2022-10-16T12:41:59;3.93;;;1.60;;
1591;SDS011;789;51.612;7.510;2022-10-16T12:44:28;2.70;;;2.10;;
1591;SDS011;789;51.612;7.510;2022-10-16T12:46:59;9.17;;;6.73;;
1591;SDS011;789;51.612;7.510;2022-10-16T12:49:30;3.97;;;1.57;;
1591;SDS011;789;51.612;7.510;2022-10-16T12:52:01;5.73;;;1.87;;
1591;SDS011;789;51.612;7.510;2022-10-16T12:54:29;2.50;;;2.00;;
1591;SDS011;789;51.612;7.510;2022-10-16T12:57:04;6.30;;;1.40;;
1591;SDS011;789;51.612;7.510;2022-10-16T12:59:57;1.63;;;1.30;;
1591;SDS011;789;51.612;7.510;2022-10-16T13:02:38;2.77;;;1.37;;
1591;SDS011;789;51.612;7.510;2022-10-16T13:05:32;3.73;;;1.60;;
1591;SDS011;789;51.612;7.510;2022-10-16T13:08:17;4.23;;;1.80;;
1591;SDS011;789;51.612;7.510;2022-10-16T13:10:57;2.47;;;1.23;;
1591;SDS011;789;51.612;7.510;2022-10-16T13:13:33;6.37;;;3.33;;
1591;SDS011;789;51.612;7.510;2022-10-16T13:16:23;3.20;;;1.60;;
1591;SDS011;789;51.612;7.510;2022-10-16T13:18:58;2.27;;;1.30;;
1591;SDS011;789;51.612;7.510;2022-10-16T13:21:38;2.90;;;1.20;;
1591;SDS011;789;51.612;7.510;2022-10-16T13:24:14;2.37;;;1.30;;
1591;SDS011;789;51.612;7.510;2022-10-16T13:26:49;2.47;;;1.50;;
1591;SDS011;789;51.612;7.510;2022-10-16T13:29:21;3.20;;;1.37;;
1591;SDS011;789;51.612;7.510;2022-10-16T13:31:49;3.03;;;1.80;;
1591;SDS011;789;51.612;7.510;2022-10-16T13:34:17;6.03;;;1.50;;
1591;SDS011;789;51.612;7.510;2022-10-16T13:36:47;4.23;;;2.53;;
1591;SDS011;789;51.612;7.510;2022-10-16T13:39:20;7.00;;;3.00;;
1591;SDS011;789;51.612;7.510;2022-10-16T13:41:57;3.03;;;1.30;;
1591;SDS011;789;51.612;7.510;2022-10-16T13:44:27;3.07;;;1.67;;
1591;SDS011;789;51.612;7.510;2022-10-16T13:47:02;2.40;;;1.50;;
1591;SDS011;789;51.612;7.510;2022-10-16T13:49:29;8.13;;;2.13;;
1591;SDS011;789;51.612;7.510;2022-10-16T13:51:56;3.03;;;1.30;;
1591;SDS011;789;51.612;7.510;2022-10-16T13:54:24;3.13;;;1.73;;
1591;SDS011;789;51.612;7.510;2022-10-16T13:56:53;2.33;;;1.27;;
1591;SDS011;789;51.612;7.510;2022-10-16T13:59:24;4.80;;;1.93;;
1591;SDS011;789;51.612;7.510;2022-10-16T14:01:53;3.93;;;2.70;;
1591;SDS011;789;51.612;7.510;2022-10-16T14:04:31;6.17;;;3.07;;
1591;SDS011;789;51.612;7.510;2022-10-16T14:06:59;3.30;;;1.80;;
1591;SDS011;789;51.612;7.510;2022-10-16T14:09:26;4.17;;;2.57;;
1591;SDS011;789;51.612;7.510;2022-10-16T14:11:55;5.17;;;3.20;;
1591;SDS011;789;51.612;7.510;2022-10-16T14:14:24;4.50;;;2.93;;
1591;SDS011;789;51.612;7.510;2022-10-16T14:16:55;9.73;;;5.90;;
1591;SDS011;789;51.612;7.510;2022-10-16T14:19:23;19.53;;;17.10;;
1591;SDS011;789;51.612;7.510;2022-10-16T14:21:53;3.97;;;2.50;;
1591;SDS011;789;51.612;7.510;2022-10-16T14:24:27;3.80;;;1.70;;
1591;SDS011;789;51.612;7.510;2022-10-16T14:26:57;2.40;;;1.07;;
1591;SDS011;789;51.612;7.510;2022-10-16T14:29:25;2.30;;;1.17;;
1591;SDS011;789;51.612;7.510;2022-10-16T14:31:54;2.23;;;1.00;;
1591;SDS011;789;51.612;7.510;2022-10-16T14:34:31;3.10;;;1.20;;
1591;SDS011;789;51.612;7.510;2022-10-16T14:36:59;2.50;;;1.13;;
1591;SDS011;789;51.612;7.510;2022-10-16T14:39:32;2.10;;;0.90;;
1591;SDS011;789;51.612;7.510;2022-10-16T14:41:59;3.30;;;1.10;;
1591;SDS011;789;51.612;7.510;2022-10-16T14:44:27;2.30;;;0.93;;
1591;SDS011;789;51.612;7.510;2022-10-16T14:46:57;2.90;;;1.23;;
1591;SDS011;789;51.612;7.510;2022-10-16T14:49:33;2.80;;;1.20;;
1591;SDS011;789;51.612;7.510;2022-10-16T14:52:00;2.63;;;1.10;;
1591;SDS011;789;51.612;7.510;2022-10-16T14:54:28;2.77;;;1.10;;
1591;SDS011;789;51.612;7.510;2022-10-16T14:56:55;4.00;;;1.37;;
1591;SDS011;789;51.612;7.510;2022-10-16T14:59:25;2.60;;;1.20;;
1591;SDS011;789;51.612;7.510;2022-10-16T15:01:56;2.70;;;1.13;;
1591;SDS011;789;51.612;7.510;2022-10-16T15:04:23;1.93;;;1.00;;
1591;SDS011;789;51.612;7.510;2022-10-16T15:06:51;3.23;;;1.50;;
1591;SDS011;789;51.612;7.510;2022-10-16T15:09:17;3.03;;;1.00;;
1591;SDS011;789;51.612;7.510;2022-10-16T15:11:44;2.63;;;1.20;;
1591;SDS011;789;51.612;7.510;2022-10-16T15:14:11;5.03;;;1.17;;
1591;SDS011;789;51.612;7.510;2022-10-16T15:16:38;3.60;;;1.33;;
1591;SDS011;789;51.612;7.510;2022-10-16T15:19:05;4.90;;;1.47;;
1591;SDS011;789;51.612;7.510;2022-10-16T15:21:32;3.10;;;1.20;;
1591;SDS011;789;51.612;7.510;2022-10-16T15:24:00;4.20;;;1.40;;
1591;SDS011;789;51.612;7.510;2022-10-16T15:26:27;1.83;;;1.07;;
1591;SDS011;789;51.612;7.510;2022-10-16T15:28:55;1.63;;;1.10;;
1591;SDS011;789;51.612;7.510;2022-10-16T15:31:22;2.63;;;1.40;;
1591;SDS011;789;51.612;7.510;2022-10-16T15:33:49;2.53;;;1.33;;
1591;SDS011;789;51.612;7.510;2022-10-16T15:36:24;2.50;;;1.20;;
1591;SDS011;789;51.612;7.510;2022-10-16T15:38:51;3.50;;;1.47;;
1591;SDS011;789;51.612;7.510;2022-10-16T15:41:20;4.23;;;1.53;;
1591;SDS011;789;51.612;7.510;2022-10-16T15:43:47;2.30;;;1.30;;
1591;SDS011;789;51.612;7.510;2022-10-16T15:46:17;4.10;;;2.20;;
1591;SDS011;789;51.612;7.510;2022-10-16T15:48:45;5.50;;;2.10;;
1591;SDS011;789;51.612;7.510;2022-10-16T15:51:12;6.00;;;2.53;;
1591;SDS011;789;51.612;7.510;2022-10-16T15:53:41;3.70;;;2.53;;